createdAt,value
2022-10-07T00:00:00.300Z,1021
2022-10-07T00:05:00.210Z,1021
2022-10-07T00:10:00.254Z,1021
2022-10-07T00:15:00.243Z,1021
2022-10-07T00:20:00.234Z,1021
2022-10-07T00:25:00.197Z,1021
2022-10-07T00:30:00.297Z,1021
2022-10-07T00:35:00.245Z,1021
2022-10-07T00:40:00.226Z,1021
2022-10-07T00:45:00.185Z,1021
2022-10-07T00:50:00.274Z,1021
2022-10-07T00:55:00.215Z,1021
2022-10-07T01:00:00.252Z,1021
2022-10-07T01:05:00.229Z,1021
2022-10-07T01:10:00.193Z,1021
2022-10-07T01:15:00.163Z,1021
2022-10-07T01:20:00.214Z,1021
2022-10-07T01:25:00.300Z,1021
2022-10-07T01:30:00.262Z,1021
2022-10-07T01:35:00.187Z,1020
2022-10-07T01:40:00.283Z,1020
2022-10-07T01:45:00.281Z,1020
2022-10-07T01:50:00.270Z,1020
2022-10-07T01:55:00.233Z,1020
2022-10-07T02:00:00.266Z,1020
2022-10-07T02:05:00.195Z,1020
2022-10-07T02:10:00.240Z,1020
2022-10-07T02:15:00.236Z,1020
2022-10-07T02:20:00.317Z,1020
2022-10-07T02:25:00.222Z,1020
2022-10-07T02:30:00.253Z,1020
2022-10-07T02:35:00.176Z,1020
2022-10-07T02:40:00.239Z,1020
2022-10-07T02:45:00.195Z,1020
2022-10-07T02:50:00.261Z,1020
2022-10-07T02:55:00.270Z,1020
2022-10-07T03:00:00.311Z,1019
2022-10-07T03:05:00.287Z,1020
2022-10-07T03:10:00.281Z,1020
2022-10-07T03:15:00.253Z,1019
2022-10-07T03:20:00.262Z,1019
2022-10-07T03:25:00.304Z,1019
2022-10-07T03:30:00.331Z,1019
2022-10-07T03:35:00.268Z,1019
2022-10-07T03:40:00.298Z,1019
2022-10-07T03:45:00.290Z,1019
2022-10-07T03:50:00.297Z,1019
2022-10-07T03:55:00.268Z,1019
2022-10-07T04:00:00.326Z,1019
2022-10-07T04:05:00.251Z,1019
2022-10-07T04:10:00.276Z,1019
2022-10-07T04:15:00.242Z,1019
2022-10-07T04:20:00.293Z,1019
2022-10-07T04:25:00.250Z,1019
2022-10-07T04:30:00.335Z,1019
2022-10-07T04:35:00.252Z,1019
2022-10-07T04:40:01.243Z,1019
2022-10-07T04:45:00.260Z,1019
2022-10-07T04:50:00.248Z,1019
2022-10-07T04:55:00.202Z,1019
2022-10-07T05:00:00.348Z,1019
2022-10-07T05:05:00.248Z,1019
2022-10-07T05:10:00.276Z,1019
2022-10-07T05:15:00.251Z,1019
2022-10-07T05:20:00.265Z,1019
2022-10-07T05:25:00.189Z,1019
2022-10-07T05:30:00.306Z,1019
2022-10-07T05:35:00.292Z,1019
2022-10-07T05:40:00.270Z,1019
2022-10-07T05:45:00.273Z,1018
2022-10-07T05:50:00.265Z,1019
2022-10-07T05:55:00.247Z,1018
2022-10-07T06:00:00.326Z,1018
2022-10-07T06:05:00.201Z,1018
2022-10-07T06:10:00.271Z,1018
2022-10-07T06:15:00.286Z,1018
2022-10-07T06:20:00.257Z,1018
2022-10-07T06:25:00.198Z,1018
2022-10-07T06:30:00.313Z,1018
2022-10-07T06:35:00.254Z,1018
2022-10-07T06:40:00.270Z,1018
2022-10-07T06:45:00.255Z,1018
2022-10-07T06:50:00.289Z,1018
2022-10-07T06:55:00.381Z,1018
2022-10-07T07:00:00.313Z,1018
2022-10-07T07:05:00.231Z,1018
2022-10-07T07:10:00.278Z,1018
2022-10-07T07:15:00.281Z,1018
2022-10-07T07:20:00.305Z,1018
2022-10-07T07:25:00.201Z,1018
2022-10-07T07:30:00.274Z,1018
2022-10-07T07:35:00.245Z,1018
2022-10-07T07:40:00.233Z,1018
2022-10-07T07:45:00.237Z,1018
2022-10-07T07:50:00.272Z,1018
2022-10-07T07:55:00.251Z,1018
2022-10-07T08:00:00.290Z,1018
2022-10-07T08:05:00.197Z,1018
2022-10-07T08:10:00.268Z,1018
2022-10-07T08:15:00.215Z,1018
2022-10-07T08:20:00.279Z,1018
2022-10-07T08:25:00.327Z,1018
2022-10-07T08:30:00.259Z,1018
2022-10-07T08:35:00.250Z,1018
2022-10-07T08:40:00.264Z,1018
2022-10-07T08:45:00.204Z,1018
2022-10-07T08:50:00.285Z,1018
2022-10-07T08:55:00.229Z,1018
2022-10-07T09:00:00.269Z,1018
2022-10-07T09:05:00.235Z,1018
2022-10-07T09:10:00.255Z,1018
2022-10-07T09:15:00.269Z,1018
2022-10-07T09:20:00.263Z,1018
2022-10-07T09:25:00.198Z,1018
2022-10-07T09:30:00.328Z,1018
2022-10-07T09:35:00.243Z,1017
2022-10-07T09:40:00.226Z,1017
2022-10-07T09:45:00.270Z,1017
2022-10-07T09:50:00.264Z,1017
2022-10-07T09:55:00.193Z,1017
2022-10-07T10:00:00.287Z,1017
2022-10-07T10:05:00.305Z,1017
2022-10-07T10:10:00.275Z,1017
2022-10-07T10:15:00.192Z,1017
2022-10-07T10:20:00.300Z,1017
2022-10-07T10:25:00.237Z,1017
2022-10-07T10:30:00.339Z,1017
2022-10-07T10:35:00.245Z,1017
2022-10-07T10:40:00.257Z,1017
2022-10-07T10:45:00.202Z,1017
2022-10-07T10:50:00.258Z,1017
2022-10-07T10:55:00.259Z,1017
2022-10-07T11:00:00.334Z,1016
2022-10-07T11:05:00.232Z,1016
2022-10-07T11:10:00.345Z,1016
2022-10-07T11:15:00.278Z,1016
2022-10-07T11:20:00.452Z,1016
2022-10-07T11:25:00.296Z,1016
2022-10-07T11:30:00.288Z,1016
2022-10-07T11:35:00.297Z,1016
2022-10-07T11:40:00.275Z,1016
2022-10-07T11:45:00.250Z,1016
2022-10-07T11:50:00.266Z,1015
2022-10-07T11:55:00.352Z,1015
2022-10-07T12:00:00.307Z,1015
2022-10-07T12:05:00.230Z,1015
2022-10-07T12:10:00.230Z,1015
2022-10-07T12:15:00.303Z,1015
2022-10-07T12:20:00.226Z,1015
2022-10-07T12:25:00.241Z,1015
2022-10-07T12:30:00.385Z,1015
2022-10-07T12:35:00.258Z,1015
2022-10-07T12:40:00.258Z,1015
2022-10-07T12:45:00.203Z,1015
2022-10-07T12:50:00.302Z,1015
2022-10-07T12:55:00.245Z,1015
2022-10-07T13:00:00.306Z,1014
2022-10-07T13:05:00.221Z,1014
2022-10-07T13:10:00.276Z,1014
2022-10-07T13:15:00.201Z,1014
2022-10-07T13:20:00.295Z,1014
2022-10-07T13:25:00.235Z,1014
2022-10-07T13:30:00.528Z,1014
2022-10-07T13:35:00.281Z,1014
2022-10-07T13:40:00.370Z,1014
2022-10-07T13:45:00.262Z,1014
2022-10-07T13:50:00.339Z,1014
2022-10-07T13:55:00.248Z,1014
2022-10-07T14:00:00.477Z,1014
2022-10-07T14:05:00.203Z,1013
2022-10-07T14:10:00.520Z,1013
2022-10-07T14:15:00.265Z,1013
2022-10-07T14:20:05.121Z,1013
2022-10-07T14:25:00.255Z,1013
2022-10-07T14:30:00.309Z,1013
2022-10-07T14:35:00.217Z,1013
2022-10-07T14:40:00.294Z,1013
2022-10-07T14:45:00.284Z,1013
2022-10-07T14:50:00.289Z,1013
2022-10-07T14:55:00.250Z,1013
2022-10-07T15:00:00.310Z,1013
2022-10-07T15:05:00.389Z,1013
2022-10-07T15:10:00.284Z,1013
2022-10-07T15:15:00.245Z,1013
2022-10-07T15:20:00.233Z,1012
2022-10-07T15:25:00.206Z,1012
2022-10-07T15:30:00.311Z,1012
2022-10-07T15:35:00.271Z,1012
2022-10-07T15:40:00.253Z,1012
2022-10-07T15:45:00.194Z,1012
2022-10-07T15:50:00.242Z,1012
2022-10-07T15:55:05.077Z,1012
2022-10-07T16:00:00.258Z,1012
2022-10-07T16:05:00.195Z,1012
2022-10-07T16:10:00.264Z,1012
2022-10-07T16:15:00.228Z,1012
2022-10-07T16:20:00.254Z,1012
2022-10-07T16:25:00.274Z,1012
2022-10-07T16:30:00.283Z,1012
2022-10-07T16:35:00.282Z,1012
2022-10-07T16:40:00.280Z,1012
2022-10-07T16:45:00.244Z,1012
2022-10-07T16:50:00.292Z,1012
2022-10-07T16:55:00.197Z,1012
2022-10-07T17:00:00.283Z,1012
2022-10-07T17:05:00.220Z,1012
2022-10-07T17:10:00.264Z,1012
2022-10-07T17:15:00.242Z,1012
2022-10-07T17:20:00.235Z,1012
2022-10-07T17:25:00.249Z,1012
2022-10-07T17:30:00.279Z,1012
2022-10-07T17:35:00.250Z,1012
2022-10-07T17:40:00.280Z,1012
2022-10-07T17:45:00.276Z,1012
2022-10-07T17:50:00.251Z,1012
2022-10-07T17:55:00.248Z,1012
2022-10-07T18:00:00.284Z,1012
2022-10-07T18:05:00.269Z,1012
2022-10-07T18:10:00.237Z,1012
2022-10-07T18:15:00.280Z,1012
2022-10-07T18:20:00.232Z,1012
2022-10-07T18:25:00.337Z,1012
2022-10-07T18:30:00.321Z,1012
2022-10-07T18:35:00.231Z,1012
2022-10-07T18:40:00.221Z,1012
2022-10-07T18:45:00.286Z,1012
2022-10-07T18:50:00.299Z,1011
2022-10-07T18:55:00.245Z,1011
2022-10-07T19:00:00.338Z,1011
2022-10-07T19:05:00.231Z,1011
2022-10-07T19:10:00.252Z,1011
2022-10-07T19:15:00.584Z,1011
2022-10-07T19:20:00.249Z,1011
2022-10-07T19:25:00.279Z,1011
2022-10-07T19:30:00.295Z,1011
2022-10-07T19:35:00.289Z,1011
2022-10-07T19:40:00.311Z,1011
2022-10-07T19:45:00.261Z,1011
2022-10-07T19:50:00.328Z,1011
2022-10-07T19:55:00.265Z,1011
2022-10-07T20:00:00.279Z,1011
2022-10-07T20:05:00.296Z,1011
2022-10-07T20:10:00.267Z,1011
2022-10-07T20:15:00.235Z,1011
2022-10-07T20:20:00.247Z,1011
2022-10-07T20:25:00.212Z,1011
2022-10-07T20:30:00.309Z,1011
2022-10-07T20:35:00.252Z,1011
2022-10-07T20:40:00.290Z,1011
2022-10-07T20:45:00.289Z,1011
2022-10-07T20:50:00.267Z,1011
2022-10-07T20:55:00.265Z,1011
2022-10-07T21:00:00.297Z,1011
2022-10-07T21:05:00.213Z,1011
2022-10-07T21:10:00.216Z,1011
2022-10-07T21:15:00.142Z,1011
2022-10-07T21:20:00.261Z,1011
2022-10-07T21:25:00.177Z,1011
2022-10-07T21:30:00.212Z,1011
2022-10-07T21:35:00.211Z,1011
2022-10-07T21:40:00.213Z,1011
2022-10-07T21:45:00.201Z,1011
2022-10-07T21:50:00.206Z,1011
2022-10-07T21:55:00.155Z,1011
2022-10-07T22:00:00.276Z,1011
2022-10-07T22:05:00.143Z,1011
2022-10-07T22:10:00.230Z,1011
2022-10-07T22:15:00.139Z,1011
2022-10-07T22:20:00.251Z,1011
2022-10-07T22:25:00.138Z,1011
2022-10-07T22:30:00.215Z,1011
2022-10-07T22:35:00.203Z,1011
2022-10-07T22:40:00.203Z,1011
2022-10-07T22:45:00.197Z,1010
2022-10-07T22:50:00.298Z,1010
2022-10-07T22:55:00.145Z,1010
2022-10-07T23:00:00.266Z,1010
2022-10-07T23:05:00.231Z,1010
2022-10-07T23:10:00.200Z,1010
2022-10-07T23:15:00.217Z,1010
2022-10-07T23:20:00.212Z,1010
2022-10-07T23:25:00.179Z,1010
2022-10-07T23:30:00.236Z,1010
2022-10-07T23:35:00.141Z,1010
2022-10-07T23:40:00.281Z,1010
2022-10-07T23:45:00.232Z,1010
2022-10-07T23:50:00.261Z,1010
2022-10-07T23:55:00.143Z,1010
